SBSN/STM METAR and TAF weather

Enter ICAO airport designator
Station Type Date Time Source
SBSN METAR 2022/06/26 07:00 UTC NOAA

SBSN 260700Z 16002KT CAVOK 23/23 Q1010


Station Type Date Time Source
SBSN Decoded METAR 2022/06/26 07:00 UTC NOAA

Santarem-Aeroporto, Brazil (SBSN) 02-26S 054-43W 72M
Jun 26, 2022 - 03:00 AM EDT / 2022.06.26 0700 UTC
Wind: from the SSE (160 degrees) at 2 MPH (2 KT):0
Visibility: greater than 7 mile(s):0
Temperature: 73 F (23 C)
Dew Point: 73 F (23 C)
Relative Humidity: 100%
Pressure (altimeter): 29.83 in. Hg (1010 hPa)
ob: SBSN 260700Z 16002KT CAVOK 23/23 Q1010
cycle: 7

Station Type Date Time Source
SBSN TAF 2022/06/26 06:03 UTC NOAA

TAF SBSN 260100Z 2606/2706 15005KT 9999 FEW015 TN23/2610Z TX30/2618Z PROB30 2609/2611 TS SCT016 FEW020CB
BECMG 2611/2613 08008KT
BECMG 2622/2624 14005KT
RMK PHI

Example: see airport list